Terminal Aerodrome Forecast
Issued by NWS

Home | Current Version | Previous Version | Text Only | Print | Product List | Glossary On
Versions: 1 2 3 4 5 6 7 8 9 10 11 12 13
000
FTUS42 KMLB 301700 RRA
TAFFPR
TAF
KFPR 301743Z 3018/3118 26008KT P6SM FEW030
     FM301900 29012G18KT P6SM SCT030 SCT060
      TEMPO 3020/3023 BKN025
     FM302300 33011KT P6SM SCT030 SCT060 SCT250
     FM310200 01007KT P6SM SCT250
     FM311400 06011G18KT P6SM FEW250=

USA.gov is the U.S. government's official web portal to all federal, state and local government web resources and services.